createdAt,value
2023-02-01T00:00:40.617Z,102082.41
2023-02-01T00:03:09.505Z,102080.25
2023-02-01T00:05:36.591Z,102072.72
2023-02-01T00:08:03.830Z,102071.06
2023-02-01T00:10:30.875Z,102076.69
2023-02-01T00:12:58.033Z,102065.50
2023-02-01T00:15:27.612Z,102062.03
2023-02-01T00:17:56.419Z,102064.47
2023-02-01T00:20:23.637Z,102070.25
2023-02-01T00:22:59.799Z,102067.56
2023-02-01T00:25:26.818Z,102062.19
2023-02-01T00:27:53.885Z,102055.84
2023-02-01T00:30:21.488Z,102053.78
2023-02-01T00:32:48.721Z,102049.06
2023-02-01T00:35:15.728Z,102040.84
2023-02-01T00:37:42.764Z,102035.22
2023-02-01T00:40:10.812Z,102040.31
2023-02-01T00:42:37.848Z,102042.47
2023-02-01T00:45:05.512Z,102042.88
2023-02-01T00:47:32.790Z,102041.66
2023-02-01T00:49:59.820Z,102037.34
2023-02-01T00:52:26.873Z,102027.03
2023-02-01T00:54:53.970Z,102031.94
2023-02-01T00:57:20.973Z,102024.97
2023-02-01T00:59:49.019Z,102030.72
2023-02-01T01:02:16.145Z,102028.53
2023-02-01T01:04:43.248Z,102040.41
2023-02-01T01:07:12.742Z,102029.31
2023-02-01T01:09:39.861Z,102015.66
2023-02-01T01:12:06.892Z,102020.63
2023-02-01T01:14:34.364Z,102040.63
2023-02-01T01:17:01.418Z,102034.56
2023-02-01T01:19:28.491Z,102043.56
2023-02-01T01:21:55.509Z,102032.97
2023-02-01T01:24:24.210Z,102031.09
2023-02-01T01:26:51.264Z,102023.81
2023-02-01T01:29:18.307Z,102041.09
2023-02-01T01:31:45.441Z,102044.47
2023-02-01T01:34:12.440Z,102049.91
2023-02-01T01:36:43.489Z,102051.59
2023-02-01T01:39:10.534Z,102074.94
2023-02-01T01:41:38.802Z,102063.59
2023-02-01T01:44:28.220Z,102066.41
2023-02-01T01:46:55.309Z,102073.22
2023-02-01T01:49:26.767Z,102064.78
2023-02-01T01:51:59.609Z,102063.75
2023-02-01T01:54:34.471Z,102063.72
2023-02-01T01:57:27.677Z,102062.13
2023-02-01T02:00:12.839Z,102061.94
2023-02-01T02:02:42.097Z,102060.75
2023-02-01T02:05:20.325Z,102057.38
2023-02-01T02:07:50.469Z,102062.44
2023-02-01T02:10:19.152Z,102071.97
2023-02-01T02:12:51.479Z,102061.13
2023-02-01T02:15:18.787Z,102064.72
2023-02-01T02:18:18.841Z,102055.66
2023-02-01T02:21:12.748Z,102068.72
2023-02-01T02:24:20.244Z,102071.34
2023-02-01T02:27:30.509Z,102056.13
2023-02-01T02:30:23.764Z,102052.53
2023-02-01T02:33:47.722Z,102034.19
2023-02-01T02:36:31.413Z,102053.66
2023-02-01T02:39:48.839Z,102023.19
2023-02-01T02:42:47.377Z,102041.44
2023-02-01T02:46:35.529Z,102031.72
2023-02-01T02:49:36.594Z,102040.66
2023-02-01T02:52:33.770Z,102044.47
2023-02-01T02:55:03.164Z,102030.88
2023-02-01T02:57:59.652Z,102025.06
2023-02-01T03:00:51.350Z,102035.69
2023-02-01T03:03:37.054Z,102033.41
2023-02-01T03:06:05.026Z,102025.22
2023-02-01T03:08:33.304Z,102025.16
2023-02-01T03:11:06.797Z,102035.81
2023-02-01T03:13:56.786Z,102036.28
2023-02-01T03:16:53.307Z,102029.69
2023-02-01T03:19:40.160Z,102042.53
2023-02-01T03:22:18.066Z,102022.28
2023-02-01T03:25:10.337Z,102037.88
2023-02-01T03:28:11.213Z,102033.13
2023-02-01T03:30:44.368Z,102031.34
2023-02-01T03:33:23.139Z,102020.81
2023-02-01T03:36:20.269Z,102023.66
2023-02-01T03:39:14.395Z,102020.69
2023-02-01T03:41:57.005Z,102025.13
2023-02-01T03:44:27.671Z,102018.25
2023-02-01T03:47:07.155Z,102031.53
2023-02-01T03:49:47.819Z,102042.34
2023-02-01T03:52:25.965Z,102030.91
2023-02-01T03:54:54.228Z,102032.09
2023-02-01T03:57:31.070Z,102050.50
2023-02-01T04:00:08.679Z,102037.75
2023-02-01T04:02:36.103Z,102038.63
2023-02-01T04:05:03.174Z,102038.22
2023-02-01T04:07:30.175Z,102035.13
2023-02-01T04:09:57.292Z,102039.91
2023-02-01T04:12:24.330Z,102036.28
2023-02-01T04:14:52.287Z,102033.09
2023-02-01T04:17:19.643Z,102026.50
2023-02-01T04:19:46.643Z,102027.03
2023-02-01T04:22:21.915Z,102039.72
2023-02-01T04:24:49.196Z,102043.59
2023-02-01T04:27:16.490Z,102049.22
2023-02-01T04:29:43.797Z,102055.66
2023-02-01T04:32:10.797Z,102060.19
2023-02-01T04:34:38.097Z,102055.72
2023-02-01T04:37:05.029Z,102055.00
2023-02-01T04:39:32.067Z,102048.56
2023-02-01T04:41:59.042Z,102058.66
2023-02-01T04:44:26.086Z,102050.25
2023-02-01T04:46:53.253Z,102056.72
2023-02-01T04:49:22.251Z,102057.53
2023-02-01T04:51:49.580Z,102057.09
2023-02-01T04:54:16.625Z,102059.44
2023-02-01T04:56:43.545Z,102060.25
2023-02-01T04:59:13.950Z,102071.91
2023-02-01T05:01:41.087Z,102071.09
2023-02-01T05:04:08.302Z,102068.47
2023-02-01T05:06:35.404Z,102065.81
2023-02-01T05:09:02.509Z,102065.09
2023-02-01T05:11:52.826Z,102080.59
2023-02-01T05:14:19.908Z,102072.31
2023-02-01T05:16:46.988Z,102065.31
2023-02-01T05:19:14.128Z,102063.06
2023-02-01T05:21:41.193Z,102066.44
2023-02-01T05:24:20.812Z,102068.38
2023-02-01T05:26:49.996Z,102068.75
2023-02-01T05:29:18.637Z,102065.72
2023-02-01T05:31:47.698Z,102065.91
2023-02-01T05:34:16.221Z,102067.69
2023-02-01T05:36:43.564Z,102069.81
2023-02-01T05:39:11.264Z,102064.72
2023-02-01T05:41:38.709Z,102068.47
2023-02-01T05:44:08.313Z,102067.97
2023-02-01T05:46:37.050Z,102074.78
2023-02-01T05:49:05.235Z,102062.22
2023-02-01T05:51:32.746Z,102070.06
2023-02-01T05:53:59.683Z,102067.50
2023-02-01T05:56:26.715Z,102065.28
2023-02-01T05:58:53.729Z,102055.72
2023-02-01T06:01:20.764Z,102050.50
2023-02-01T06:03:47.920Z,102063.31
2023-02-01T06:06:14.958Z,102057.41
2023-02-01T06:08:42.124Z,102063.69
2023-02-01T06:11:10.067Z,102054.50
2023-02-01T06:13:39.628Z,102062.22
2023-02-01T06:16:08.551Z,102067.34
2023-02-01T06:18:36.571Z,102069.53
2023-02-01T06:21:04.314Z,102065.31
2023-02-01T06:23:32.030Z,102063.63
2023-02-01T06:26:06.014Z,102072.03
2023-02-01T06:28:34.489Z,102054.56
2023-02-01T06:31:08.479Z,102067.84
2023-02-01T06:33:41.831Z,102077.19
2023-02-01T06:36:13.431Z,102075.53
2023-02-01T06:38:40.755Z,102059.66
2023-02-01T06:41:21.632Z,102055.25
2023-02-01T06:43:48.672Z,102058.09
2023-02-01T06:46:16.244Z,102058.38
2023-02-01T06:48:43.388Z,102059.13
2023-02-01T06:51:28.135Z,102061.19
2023-02-01T06:54:07.579Z,102061.25
2023-02-01T06:56:34.619Z,102063.75
2023-02-01T06:59:05.689Z,102064.06
2023-02-01T07:01:32.792Z,102050.91
2023-02-01T07:04:05.701Z,102057.88
2023-02-01T07:06:32.732Z,102068.38
2023-02-01T07:09:01.454Z,102076.56
2023-02-01T07:11:29.149Z,102093.25
2023-02-01T07:13:56.201Z,102079.34
2023-02-01T07:16:23.349Z,102068.94
2023-02-01T07:18:53.211Z,102074.69
2023-02-01T07:21:21.060Z,102088.84
2023-02-01T07:23:48.062Z,102079.69
2023-02-01T07:26:15.609Z,102078.41
2023-02-01T07:28:43.139Z,102086.16
2023-02-01T07:31:19.139Z,102097.56
2023-02-01T07:33:46.624Z,102098.41
2023-02-01T07:36:17.475Z,102087.16
2023-02-01T07:38:50.161Z,102089.44
2023-02-01T07:41:18.492Z,102087.38
2023-02-01T07:43:45.550Z,102087.28
2023-02-01T07:46:13.386Z,102094.38
2023-02-01T07:48:40.471Z,102081.72
2023-02-01T07:51:12.838Z,102085.97
2023-02-01T07:53:41.753Z,102099.88
2023-02-01T07:56:18.553Z,102099.66
2023-02-01T07:58:53.662Z,102104.53
2023-02-01T08:01:25.611Z,102096.47
2023-02-01T08:04:03.247Z,102094.50
2023-02-01T08:06:33.435Z,102107.16
2023-02-01T08:09:01.337Z,102114.63
2023-02-01T08:11:28.437Z,102116.88
2023-02-01T08:13:55.848Z,102113.84
2023-02-01T08:16:24.754Z,102110.50
2023-02-01T08:18:53.077Z,102102.50
2023-02-01T08:21:24.261Z,102111.97
2023-02-01T08:23:51.592Z,102129.81
2023-02-01T08:26:25.801Z,102113.47
2023-02-01T08:28:57.212Z,102119.91
2023-02-01T08:31:27.050Z,102115.81
2023-02-01T08:33:57.662Z,102124.06
2023-02-01T08:36:27.168Z,102112.97
2023-02-01T08:38:54.665Z,102108.50
2023-02-01T08:41:25.876Z,102108.81
2023-02-01T08:43:58.682Z,102108.97
2023-02-01T08:46:25.713Z,102112.00
2023-02-01T08:48:53.525Z,102101.88
2023-02-01T08:51:23.400Z,102100.91
2023-02-01T08:53:51.236Z,102102.16
2023-02-01T08:56:19.900Z,102090.88
2023-02-01T08:58:47.091Z,102103.22
2023-02-01T09:01:17.845Z,102091.47
2023-02-01T09:03:45.616Z,102089.47
2023-02-01T09:06:15.984Z,102093.28
2023-02-01T09:08:44.096Z,102099.44
2023-02-01T09:11:17.513Z,102093.81
2023-02-01T09:13:44.639Z,102093.28
2023-02-01T09:16:12.228Z,102093.69
2023-02-01T09:18:46.193Z,102089.78
2023-02-01T09:21:23.921Z,102092.03
2023-02-01T09:23:52.872Z,102094.75
2023-02-01T09:26:26.547Z,102091.88
2023-02-01T09:28:58.505Z,102109.25
2023-02-01T09:31:25.600Z,102090.47
2023-02-01T09:33:52.727Z,102096.16
2023-02-01T09:36:20.761Z,102106.03
2023-02-01T09:38:52.855Z,102110.97
2023-02-01T09:41:32.329Z,102108.50
2023-02-01T09:44:19.182Z,102098.19
2023-02-01T09:46:47.150Z,102102.72
2023-02-01T09:49:21.024Z,102111.00
2023-02-01T09:51:51.457Z,102108.66
2023-02-01T09:54:26.676Z,102117.47
2023-02-01T09:57:06.213Z,102115.59
2023-02-01T10:00:06.996Z,102110.53
2023-02-01T10:02:39.923Z,102108.22
2023-02-01T10:05:14.190Z,102121.25
2023-02-01T10:08:03.894Z,102115.44
2023-02-01T10:10:49.350Z,102112.66
2023-02-01T10:13:55.410Z,102117.72
2023-02-01T10:17:02.184Z,102113.31
2023-02-01T10:20:09.309Z,102104.78
2023-02-01T10:23:11.458Z,102116.72
2023-02-01T10:25:57.048Z,102109.69
2023-02-01T10:28:26.122Z,102108.13
2023-02-01T10:30:58.424Z,102101.13
2023-02-01T10:33:44.353Z,102116.09
2023-02-01T10:36:26.497Z,102113.66
2023-02-01T10:38:53.471Z,102119.63
2023-02-01T10:41:28.089Z,102115.69
2023-02-01T10:43:58.625Z,102115.72
2023-02-01T10:46:26.589Z,102102.56
2023-02-01T10:48:57.580Z,102106.03
2023-02-01T10:51:56.631Z,102092.56
2023-02-01T10:54:36.530Z,102109.75
2023-02-01T10:57:03.511Z,102108.50
2023-02-01T10:59:34.476Z,102110.38
2023-02-01T11:02:36.525Z,102111.78
2023-02-01T11:05:13.073Z,102115.38
2023-02-01T11:07:55.861Z,102103.34
2023-02-01T11:10:45.223Z,102102.97
2023-02-01T11:13:18.615Z,102094.13
2023-02-01T11:15:48.024Z,102094.59
2023-02-01T11:18:21.766Z,102091.25
2023-02-01T11:20:50.370Z,102099.84
2023-02-01T11:23:21.351Z,102091.88
2023-02-01T11:26:24.671Z,102071.56
2023-02-01T11:28:58.217Z,102075.97
2023-02-01T11:31:27.524Z,102073.22
2023-02-01T11:34:14.563Z,102067.88
2023-02-01T11:36:42.172Z,102056.78
2023-02-01T11:39:20.183Z,102045.53
2023-02-01T11:42:27.058Z,102048.69
2023-02-01T11:45:29.759Z,102045.31
2023-02-01T11:47:59.037Z,102050.84
2023-02-01T11:50:55.558Z,102047.00
2023-02-01T11:53:57.193Z,102048.38
2023-02-01T11:56:40.593Z,102039.78
2023-02-01T11:59:40.973Z,102045.75
2023-02-01T12:02:57.638Z,102039.09
2023-02-01T12:05:57.557Z,102033.31
2023-02-01T12:08:27.321Z,102049.22
2023-02-01T12:11:34.709Z,102029.75
2023-02-01T12:14:25.482Z,102017.34
2023-02-01T12:17:26.456Z,102012.50
2023-02-01T12:20:27.383Z,102016.25
2023-02-01T12:23:52.284Z,102012.66
2023-02-01T12:26:40.369Z,102011.69
2023-02-01T12:29:35.290Z,102010.63
2023-02-01T12:32:26.635Z,102007.31
2023-02-01T12:35:21.297Z,102006.06
2023-02-01T12:38:15.863Z,102002.44
2023-02-01T12:41:15.284Z,101994.13
2023-02-01T12:44:08.804Z,102005.03
2023-02-01T12:46:47.102Z,102010.41
2023-02-01T12:49:33.630Z,102014.47
2023-02-01T12:52:06.960Z,102014.34
2023-02-01T12:54:47.930Z,102018.28
2023-02-01T12:57:25.144Z,102004.28
2023-02-01T13:00:10.803Z,102009.44
2023-02-01T13:03:02.514Z,102001.09
2023-02-01T13:05:43.719Z,102014.34
2023-02-01T13:08:24.752Z,101997.41
2023-02-01T13:11:14.793Z,101999.03
2023-02-01T13:14:12.949Z,102002.63
2023-02-01T13:16:52.624Z,102004.47
2023-02-01T13:19:30.377Z,101995.59
2023-02-01T13:22:12.947Z,102011.38
2023-02-01T13:24:49.408Z,101999.06
2023-02-01T13:27:18.345Z,102009.22
2023-02-01T13:30:16.896Z,102003.06
2023-02-01T13:33:51.240Z,101998.00
2023-02-01T13:36:29.125Z,101990.41
2023-02-01T13:39:35.630Z,102005.22
2023-02-01T13:42:14.972Z,102000.28
2023-02-01T13:44:57.082Z,102003.34
2023-02-01T13:47:43.669Z,102010.44
2023-02-01T13:50:28.145Z,102008.59
2023-02-01T13:53:16.109Z,102013.00
2023-02-01T13:56:07.220Z,102004.00
2023-02-01T13:58:41.042Z,102009.50
2023-02-01T14:01:23.376Z,102015.22
2023-02-01T14:04:08.011Z,102013.44
2023-02-01T14:06:56.878Z,102007.47
2023-02-01T14:09:38.096Z,102019.72
2023-02-01T14:13:13.247Z,102008.97
2023-02-01T14:15:40.333Z,102015.16
2023-02-01T14:18:36.049Z,102032.94
2023-02-01T14:21:37.261Z,102022.59
2023-02-01T14:24:28.732Z,102017.81
2023-02-01T14:27:00.244Z,102031.34
2023-02-01T14:29:40.565Z,102038.81
2023-02-01T14:32:19.106Z,102024.81
2023-02-01T14:34:49.072Z,102023.34
2023-02-01T14:37:18.804Z,102027.44
2023-02-01T14:39:45.682Z,102036.22
2023-02-01T14:42:50.095Z,102034.81
2023-02-01T14:45:20.602Z,102042.06
2023-02-01T14:48:06.256Z,102038.38
2023-02-01T14:50:33.447Z,102037.91
2023-02-01T14:53:20.983Z,102041.91
2023-02-01T14:56:11.521Z,102045.34
2023-02-01T14:58:47.880Z,102052.44
2023-02-01T15:01:32.661Z,102046.16
2023-02-01T15:04:19.278Z,102038.22
2023-02-01T15:06:55.155Z,102045.09
2023-02-01T15:09:28.134Z,102055.09
2023-02-01T15:12:14.387Z,102054.81
2023-02-01T15:15:05.228Z,102060.53
2023-02-01T15:17:35.071Z,102056.16
2023-02-01T15:20:24.748Z,102057.53
2023-02-01T15:22:59.757Z,102067.19
2023-02-01T15:25:33.930Z,102053.91
2023-02-01T15:28:00.915Z,102058.91
2023-02-01T15:30:31.876Z,102050.69
2023-02-01T15:33:15.775Z,102054.28
2023-02-01T15:35:47.210Z,102060.47
2023-02-01T15:38:26.198Z,102058.72
2023-02-01T15:41:17.866Z,102058.03
2023-02-01T15:44:05.669Z,102048.84
2023-02-01T15:46:40.780Z,102040.88
2023-02-01T15:49:26.705Z,102033.28
2023-02-01T15:52:03.850Z,102036.88
2023-02-01T15:54:45.294Z,102029.06
2023-02-01T15:57:12.307Z,102025.81
2023-02-01T15:59:45.614Z,102030.78
2023-02-01T16:02:52.456Z,102050.72
2023-02-01T16:05:39.445Z,102052.88
2023-02-01T16:08:22.847Z,102042.22
2023-02-01T16:10:54.062Z,102048.78
2023-02-01T16:13:22.512Z,102038.31
2023-02-01T16:15:50.360Z,102033.47
2023-02-01T16:18:19.109Z,102038.44
2023-02-01T16:20:48.449Z,102040.63
2023-02-01T16:23:15.588Z,102047.50
2023-02-01T16:25:43.246Z,102052.66
2023-02-01T16:28:10.609Z,102049.25
2023-02-01T16:30:37.860Z,102052.72
2023-02-01T16:33:06.551Z,102052.28
2023-02-01T16:35:37.245Z,102059.06
2023-02-01T16:38:14.018Z,102044.63
2023-02-01T16:40:44.076Z,102055.00
2023-02-01T16:43:26.607Z,102059.41
2023-02-01T16:45:56.742Z,102069.97
2023-02-01T16:48:31.138Z,102068.06
2023-02-01T16:51:04.867Z,102072.25
2023-02-01T16:53:36.551Z,102077.00
2023-02-01T16:56:33.659Z,102084.94
2023-02-01T16:59:00.979Z,102081.84
2023-02-01T17:01:28.513Z,102093.84
2023-02-01T17:03:55.563Z,102092.84
2023-02-01T17:06:26.270Z,102113.56
2023-02-01T17:08:58.938Z,102103.22
2023-02-01T17:11:27.784Z,102104.63
2023-02-01T17:13:54.923Z,102105.53
2023-02-01T17:16:32.839Z,102111.53
2023-02-01T17:19:17.307Z,102108.09
2023-02-01T17:21:49.805Z,102106.25
2023-02-01T17:24:19.255Z,102104.28
2023-02-01T17:26:46.865Z,102106.66
2023-02-01T17:29:14.206Z,102105.63
2023-02-01T17:31:45.113Z,102118.19
2023-02-01T17:34:15.659Z,102106.84
2023-02-01T17:36:43.864Z,102120.81
2023-02-01T17:39:11.609Z,102128.91
2023-02-01T17:41:38.724Z,102116.59
2023-02-01T17:44:05.808Z,102118.00
2023-02-01T17:46:32.976Z,102120.53
2023-02-01T17:49:01.487Z,102127.75
2023-02-01T17:51:31.041Z,102131.09
2023-02-01T17:53:58.256Z,102124.03
2023-02-01T17:56:26.096Z,102134.44
2023-02-01T17:58:53.322Z,102124.16
2023-02-01T18:01:24.278Z,102136.28
2023-02-01T18:03:52.121Z,102141.44
2023-02-01T18:06:23.712Z,102129.22
2023-02-01T18:08:51.367Z,102129.28
2023-02-01T18:11:24.850Z,102136.28
2023-02-01T18:13:53.880Z,102134.44
2023-02-01T18:16:25.784Z,102124.56
2023-02-01T18:18:53.516Z,102132.81
2023-02-01T18:21:23.034Z,102127.56
2023-02-01T18:23:50.368Z,102137.28
2023-02-01T18:26:19.449Z,102142.47
2023-02-01T18:28:46.583Z,102133.78
2023-02-01T18:31:24.166Z,102140.78
2023-02-01T18:33:53.147Z,102130.53
2023-02-01T18:36:20.535Z,102133.06
2023-02-01T18:38:47.775Z,102123.56
2023-02-01T18:41:23.441Z,102126.31
2023-02-01T18:43:52.483Z,102130.16
2023-02-01T18:46:21.594Z,102122.53
2023-02-01T18:48:48.859Z,102132.13
2023-02-01T18:51:20.320Z,102119.22
2023-02-01T18:53:48.734Z,102116.50
2023-02-01T18:56:18.561Z,102127.88
2023-02-01T18:58:45.874Z,102122.44
2023-02-01T19:01:22.018Z,102114.72
2023-02-01T19:04:04.206Z,102119.22
2023-02-01T19:06:37.134Z,102122.78
2023-02-01T19:09:04.226Z,102114.59
2023-02-01T19:11:31.226Z,102119.59
2023-02-01T19:13:58.265Z,102123.94
2023-02-01T19:16:25.249Z,102123.13
2023-02-01T19:18:53.662Z,102115.63
2023-02-01T19:21:20.762Z,102115.28
2023-02-01T19:23:47.873Z,102118.22
2023-02-01T19:26:17.509Z,102117.09
2023-02-01T19:28:47.735Z,102125.75
2023-02-01T19:31:16.097Z,102117.50
2023-02-01T19:33:43.121Z,102135.25
2023-02-01T19:36:11.016Z,102120.63
2023-02-01T19:38:38.635Z,102117.16
2023-02-01T19:41:06.058Z,102116.69
2023-02-01T19:43:33.307Z,102114.59
2023-02-01T19:46:02.733Z,102118.13
2023-02-01T19:48:31.552Z,102127.25
2023-02-01T19:50:59.307Z,102125.41
2023-02-01T19:53:28.105Z,102125.06
2023-02-01T19:55:59.460Z,102117.69
2023-02-01T19:58:26.768Z,102124.88
2023-02-01T20:00:59.715Z,102132.34
2023-02-01T20:03:27.424Z,102126.81
2023-02-01T20:05:57.379Z,102131.75
2023-02-01T20:08:24.969Z,102123.75
2023-02-01T20:10:52.002Z,102128.75
2023-02-01T20:13:19.171Z,102120.03
2023-02-01T20:15:46.285Z,102114.63
2023-02-01T20:18:13.591Z,102127.19
2023-02-01T20:20:41.901Z,102126.41
2023-02-01T20:23:09.436Z,102119.47
2023-02-01T20:25:38.331Z,102120.22
2023-02-01T20:28:05.548Z,102115.44
2023-02-01T20:30:33.023Z,102120.81
2023-02-01T20:33:00.194Z,102130.75
2023-02-01T20:35:27.179Z,102130.28
2023-02-01T20:37:57.030Z,102120.63
2023-02-01T20:40:24.056Z,102120.63
2023-02-01T20:42:51.005Z,102119.41
2023-02-01T20:45:18.049Z,102121.16
2023-02-01T20:47:49.585Z,102136.09
2023-02-01T20:50:16.837Z,102129.31
2023-02-01T20:52:43.761Z,102122.00
2023-02-01T20:55:11.009Z,102131.16
2023-02-01T20:57:37.959Z,102123.31
2023-02-01T21:00:10.260Z,102134.47
2023-02-01T21:02:44.396Z,102125.38
2023-02-01T21:05:11.683Z,102141.44
2023-02-01T21:07:38.797Z,102141.00
2023-02-01T21:10:07.221Z,102137.28
2023-02-01T21:12:34.377Z,102143.28
2023-02-01T21:15:02.563Z,102137.50
2023-02-01T21:17:33.099Z,102148.97
2023-02-01T21:20:00.242Z,102144.53
2023-02-01T21:22:27.232Z,102152.81
2023-02-01T21:24:54.191Z,102147.28
2023-02-01T21:27:21.991Z,102144.03
2023-02-01T21:29:48.989Z,102144.56
2023-02-01T21:32:15.993Z,102150.75
2023-02-01T21:34:42.926Z,102143.72
2023-02-01T21:37:10.042Z,102146.13
2023-02-01T21:39:37.008Z,102137.03
2023-02-01T21:42:21.845Z,102150.84
2023-02-01T21:44:49.362Z,102160.09
2023-02-01T21:47:26.628Z,102160.41
2023-02-01T21:49:54.043Z,102154.56
2023-02-01T21:52:22.076Z,102165.91
2023-02-01T21:54:49.094Z,102167.38
2023-02-01T21:57:16.362Z,102165.84
2023-02-01T21:59:44.132Z,102175.47
2023-02-01T22:02:14.972Z,102169.25
2023-02-01T22:04:42.939Z,102174.53
2023-02-01T22:07:11.379Z,102184.09
2023-02-01T22:09:38.518Z,102178.00
2023-02-01T22:12:05.669Z,102180.13
2023-02-01T22:14:33.596Z,102171.94
2023-02-01T22:17:00.760Z,102178.06
2023-02-01T22:19:27.727Z,102182.88
2023-02-01T22:21:54.844Z,102178.25
2023-02-01T22:24:22.007Z,102196.25
2023-02-01T22:26:50.415Z,102195.16
2023-02-01T22:29:19.290Z,102192.44
2023-02-01T22:31:46.642Z,102205.09
2023-02-01T22:34:13.832Z,102203.53
2023-02-01T22:36:41.266Z,102195.13
2023-02-01T22:39:09.234Z,102205.72
2023-02-01T22:41:36.278Z,102199.91
2023-02-01T22:44:04.601Z,102198.66
2023-02-01T22:46:31.561Z,102199.06
2023-02-01T22:49:00.085Z,102206.78
2023-02-01T22:51:30.145Z,102195.41
2023-02-01T22:53:58.048Z,102207.00
2023-02-01T22:56:34.717Z,102204.03
2023-02-01T22:59:05.837Z,102201.78
2023-02-01T23:01:34.713Z,102202.34
2023-02-01T23:04:07.222Z,102200.50
2023-02-01T23:06:35.125Z,102192.69
2023-02-01T23:09:13.813Z,102204.03
2023-02-01T23:11:41.909Z,102216.75
2023-02-01T23:14:10.115Z,102209.75
2023-02-01T23:16:38.052Z,102196.59
2023-02-01T23:19:05.940Z,102214.13
2023-02-01T23:21:33.576Z,102201.38
2023-02-01T23:24:03.128Z,102210.19
2023-02-01T23:26:31.891Z,102207.31
2023-02-01T23:28:59.913Z,102214.75
2023-02-01T23:31:33.225Z,102210.81
2023-02-01T23:34:03.198Z,102209.47
2023-02-01T23:36:32.905Z,102211.88
2023-02-01T23:39:00.204Z,102204.59
2023-02-01T23:41:29.975Z,102221.75
2023-02-01T23:43:59.874Z,102216.81
2023-02-01T23:46:34.720Z,102214.72
2023-02-01T23:49:05.090Z,102211.22
2023-02-01T23:51:32.682Z,102217.72
2023-02-01T23:54:00.367Z,102215.09
2023-02-01T23:56:34.321Z,102221.84
2023-02-01T23:59:03.913Z,102221.16
